sensor_id;sensor_type;location;lat;lon;timestamp;pressure;altitude;pressure_sealevel;temperature;humidity
8585;BME280;7180;52.742;11.420;2023-02-23T00:01:54;100573.31;;;6.53;100.00
8585;BME280;7180;52.742;11.420;2023-02-23T00:04:20;100561.34;;;6.48;100.00
8585;BME280;7180;52.742;11.420;2023-02-23T00:06:45;100559.91;;;6.41;100.00
8585;BME280;7180;52.742;11.420;2023-02-23T00:09:10;100570.28;;;6.42;100.00
8585;BME280;7180;52.742;11.420;2023-02-23T00:11:55;100564.19;;;6.42;100.00
8585;BME280;7180;52.742;11.420;2023-02-23T00:14:24;100565.38;;;6.35;100.00
8585;BME280;7180;52.742;11.420;2023-02-23T00:16:51;100569.75;;;6.34;100.00
8585;BME280;7180;52.742;11.420;2023-02-23T00:19:18;100577.41;;;6.39;100.00
8585;BME280;7180;52.742;11.420;2023-02-23T00:21:43;100587.72;;;6.42;100.00
8585;BME280;7180;52.742;11.420;2023-02-23T00:24:11;100581.53;;;6.44;100.00
8585;BME280;7180;52.742;11.420;2023-02-23T00:26:39;100578.22;;;6.39;100.00
8585;BME280;7180;52.742;11.420;2023-02-23T00:29:09;100573.38;;;6.30;100.00
8585;BME280;7180;52.742;11.420;2023-02-23T00:31:35;100572.63;;;6.28;100.00
8585;BME280;7180;52.742;11.420;2023-02-23T00:34:02;100578.09;;;6.22;100.00
8585;BME280;7180;52.742;11.420;2023-02-23T00:36:30;100575.47;;;6.22;100.00
8585;BME280;7180;52.742;11.420;2023-02-23T00:38:57;100590.13;;;6.26;100.00
8585;BME280;7180;52.742;11.420;2023-02-23T00:41:24;100592.72;;;6.26;100.00
8585;BME280;7180;52.742;11.420;2023-02-23T00:43:54;100587.59;;;6.23;100.00
8585;BME280;7180;52.742;11.420;2023-02-23T00:46:22;100590.28;;;6.21;100.00
8585;BME280;7180;52.742;11.420;2023-02-23T00:48:49;100585.91;;;6.22;100.00
8585;BME280;7180;52.742;11.420;2023-02-23T00:51:16;100580.84;;;6.19;100.00
8585;BME280;7180;52.742;11.420;2023-02-23T00:53:42;100593.91;;;6.17;100.00
8585;BME280;7180;52.742;11.420;2023-02-23T00:56:10;100583.91;;;6.07;100.00
8585;BME280;7180;52.742;11.420;2023-02-23T00:58:35;100592.59;;;6.07;100.00
8585;BME280;7180;52.742;11.420;2023-02-23T01:01:05;100582.41;;;6.01;100.00
8585;BME280;7180;52.742;11.420;2023-02-23T01:03:30;100575.72;;;5.94;100.00
8585;BME280;7180;52.742;11.420;2023-02-23T01:06:00;100585.94;;;6.00;100.00
8585;BME280;7180;52.742;11.420;2023-02-23T01:08:31;100595.41;;;6.03;100.00
8585;BME280;7180;52.742;11.420;2023-02-23T01:10:57;100590.28;;;6.00;100.00
8585;BME280;7180;52.742;11.420;2023-02-23T01:13:23;100606.09;;;5.97;100.00
8585;BME280;7180;52.742;11.420;2023-02-23T01:15:49;100603.59;;;5.94;100.00
8585;BME280;7180;52.742;11.420;2023-02-23T01:18:17;100613.13;;;5.95;100.00
8585;BME280;7180;52.742;11.420;2023-02-23T01:20:44;100619.94;;;5.99;100.00
8585;BME280;7180;52.742;11.420;2023-02-23T01:23:11;100635.22;;;6.08;100.00
8585;BME280;7180;52.742;11.420;2023-02-23T01:25:37;100621.38;;;6.06;100.00
8585;BME280;7180;52.742;11.420;2023-02-23T01:28:03;100618.78;;;6.06;100.00
8585;BME280;7180;52.742;11.420;2023-02-23T01:30:28;100630.97;;;6.05;100.00
8585;BME280;7180;52.742;11.420;2023-02-23T01:32:53;100623.78;;;6.10;100.00
8585;BME280;7180;52.742;11.420;2023-02-23T01:35:19;100618.72;;;6.07;100.00
8585;BME280;7180;52.742;11.420;2023-02-23T01:37:44;100624.66;;;6.11;100.00
8585;BME280;7180;52.742;11.420;2023-02-23T01:40:15;100616.16;;;6.06;100.00
8585;BME280;7180;52.742;11.420;2023-02-23T01:42:45;100609.22;;;6.05;100.00
8585;BME280;7180;52.742;11.420;2023-02-23T01:45:34;100602.19;;;6.07;100.00
8585;BME280;7180;52.742;11.420;2023-02-23T01:48:19;100610.72;;;6.12;100.00
8585;BME280;7180;52.742;11.420;2023-02-23T01:50:55;100600.31;;;6.10;100.00
8585;BME280;7180;52.742;11.420;2023-02-23T01:53:25;100602.03;;;6.11;100.00
8585;BME280;7180;52.742;11.420;2023-02-23T01:55:56;100599.50;;;6.08;100.00
8585;BME280;7180;52.742;11.420;2023-02-23T01:58:26;100588.31;;;6.06;100.00
8585;BME280;7180;52.742;11.420;2023-02-23T02:00:55;100592.59;;;6.07;100.00
8585;BME280;7180;52.742;11.420;2023-02-23T02:03:33;100590.84;;;6.08;100.00
8585;BME280;7180;52.742;11.420;2023-02-23T02:06:00;100587.63;;;6.01;100.00
8585;BME280;7180;52.742;11.420;2023-02-23T02:08:29;100587.59;;;6.03;100.00
8585;BME280;7180;52.742;11.420;2023-02-23T02:10:55;100575.50;;;6.00;100.00
8585;BME280;7180;52.742;11.420;2023-02-23T02:13:24;100575.66;;;5.96;100.00
8585;BME280;7180;52.742;11.420;2023-02-23T02:25:23;100577.75;;;5.88;100.00
8585;BME280;7180;52.742;11.420;2023-02-23T02:28:20;100582.16;;;5.86;100.00
8585;BME280;7180;52.742;11.420;2023-02-23T02:37:10;100570.88;;;5.62;100.00
8585;BME280;7180;52.742;11.420;2023-02-23T02:42:28;100576.41;;;5.55;100.00
8585;BME280;7180;52.742;11.420;2023-02-23T02:50:40;100588.97;;;5.44;100.00
8585;BME280;7180;52.742;11.420;2023-02-23T02:53:13;100589.28;;;5.36;100.00
8585;BME280;7180;52.742;11.420;2023-02-23T02:55:42;100592.97;;;5.31;100.00
8585;BME280;7180;52.742;11.420;2023-02-23T02:58:10;100593.19;;;5.24;100.00
8585;BME280;7180;52.742;11.420;2023-02-23T03:00:41;100593.53;;;5.15;100.00
8585;BME280;7180;52.742;11.420;2023-02-23T03:03:34;100589.50;;;5.07;100.00
8585;BME280;7180;52.742;11.420;2023-02-23T03:06:23;100596.59;;;5.02;100.00
8585;BME280;7180;52.742;11.420;2023-02-23T03:09:18;100605.03;;;5.10;100.00
8585;BME280;7180;52.742;11.420;2023-02-23T03:12:09;100600.00;;;5.04;100.00
8585;BME280;7180;52.742;11.420;2023-02-23T03:18:00;100611.34;;;5.03;100.00
8585;BME280;7180;52.742;11.420;2023-02-23T03:20:53;100613.22;;;4.99;100.00
8585;BME280;7180;52.742;11.420;2023-02-23T03:23:44;100618.44;;;4.99;100.00
8585;BME280;7180;52.742;11.420;2023-02-23T03:26:39;100619.38;;;4.97;100.00
8585;BME280;7180;52.742;11.420;2023-02-23T03:29:44;100628.00;;;4.99;100.00
8585;BME280;7180;52.742;11.420;2023-02-23T03:32:54;100627.06;;;5.01;100.00
8585;BME280;7180;52.742;11.420;2023-02-23T03:35:55;100634.81;;;5.03;100.00
8585;BME280;7180;52.742;11.420;2023-02-23T03:41:28;100627.78;;;5.05;100.00
8585;BME280;7180;52.742;11.420;2023-02-23T03:44:17;100635.66;;;5.03;100.00
8585;BME280;7180;52.742;11.420;2023-02-23T03:47:05;100641.63;;;5.07;100.00
8585;BME280;7180;52.742;11.420;2023-02-23T03:49:49;100638.31;;;5.02;100.00
8585;BME280;7180;52.742;11.420;2023-02-23T03:52:40;100640.13;;;5.00;100.00
8585;BME280;7180;52.742;11.420;2023-02-23T03:55:31;100640.97;;;5.00;100.00
8585;BME280;7180;52.742;11.420;2023-02-23T03:58:22;100637.47;;;5.01;100.00
8585;BME280;7180;52.742;11.420;2023-02-23T04:01:08;100634.06;;;4.99;100.00
8585;BME280;7180;52.742;11.420;2023-02-23T04:03:55;100639.16;;;5.02;100.00
8585;BME280;7180;52.742;11.420;2023-02-23T04:06:44;100637.09;;;5.12;100.00
8585;BME280;7180;52.742;11.420;2023-02-23T04:09:30;100637.88;;;5.14;100.00
8585;BME280;7180;52.742;11.420;2023-02-23T04:12:20;100635.34;;;5.12;100.00
8585;BME280;7180;52.742;11.420;2023-02-23T04:15:19;100636.22;;;5.11;100.00
8585;BME280;7180;52.742;11.420;2023-02-23T04:17:47;100636.91;;;5.16;100.00
8585;BME280;7180;52.742;11.420;2023-02-23T04:20:13;100629.16;;;5.15;100.00
8585;BME280;7180;52.742;11.420;2023-02-23T04:22:38;100630.94;;;5.14;100.00
8585;BME280;7180;52.742;11.420;2023-02-23T04:25:04;100620.72;;;5.08;100.00
8585;BME280;7180;52.742;11.420;2023-02-23T04:27:34;100629.53;;;5.04;100.00
8585;BME280;7180;52.742;11.420;2023-02-23T04:29:59;100617.50;;;5.00;100.00
8585;BME280;7180;52.742;11.420;2023-02-23T04:32:24;100619.28;;;5.00;100.00
8585;BME280;7180;52.742;11.420;2023-02-23T04:34:49;100619.50;;;4.94;100.00
8585;BME280;7180;52.742;11.420;2023-02-23T04:37:15;100617.03;;;4.89;100.00
8585;BME280;7180;52.742;11.420;2023-02-23T04:39:40;100620.69;;;4.84;100.00
8585;BME280;7180;52.742;11.420;2023-02-23T04:42:12;100611.31;;;4.80;100.00
8585;BME280;7180;52.742;11.420;2023-02-23T04:44:37;100612.25;;;4.77;100.00
8585;BME280;7180;52.742;11.420;2023-02-23T04:47:03;100610.56;;;4.76;100.00
8585;BME280;7180;52.742;11.420;2023-02-23T04:49:28;100612.16;;;4.80;100.00
8585;BME280;7180;52.742;11.420;2023-02-23T04:51:53;100614.19;;;4.72;100.00
8585;BME280;7180;52.742;11.420;2023-02-23T04:54:18;100614.19;;;4.72;100.00
8585;BME280;7180;52.742;11.420;2023-02-23T04:56:44;100610.66;;;4.73;100.00
8585;BME280;7180;52.742;11.420;2023-02-23T04:59:09;100619.38;;;4.72;100.00
8585;BME280;7180;52.742;11.420;2023-02-23T05:01:34;100615.97;;;4.70;100.00
8585;BME280;7180;52.742;11.420;2023-02-23T05:04:01;100622.94;;;4.70;100.00
8585;BME280;7180;52.742;11.420;2023-02-23T05:06:26;100623.78;;;4.70;100.00
8585;BME280;7180;52.742;11.420;2023-02-23T05:08:51;100625.66;;;4.67;100.00
8585;BME280;7180;52.742;11.420;2023-02-23T05:11:17;100625.59;;;4.68;100.00
8585;BME280;7180;52.742;11.420;2023-02-23T05:13:42;100629.00;;;4.70;100.00
8585;BME280;7180;52.742;11.420;2023-02-23T05:16:07;100629.91;;;4.69;100.00
8585;BME280;7180;52.742;11.420;2023-02-23T05:18:33;100630.00;;;4.66;100.00
8585;BME280;7180;52.742;11.420;2023-02-23T05:21:06;100624.03;;;4.63;100.00
8585;BME280;7180;52.742;11.420;2023-02-23T05:23:33;100618.09;;;4.59;100.00
8585;BME280;7180;52.742;11.420;2023-02-23T05:26:10;100604.56;;;4.48;100.00
8585;BME280;7180;52.742;11.420;2023-02-23T05:28:37;100607.97;;;4.50;100.00
8585;BME280;7180;52.742;11.420;2023-02-23T05:31:03;100610.47;;;4.53;100.00
8585;BME280;7180;52.742;11.420;2023-02-23T05:33:30;100616.47;;;4.55;100.00
8585;BME280;7180;52.742;11.420;2023-02-23T05:35:55;100616.47;;;4.55;100.00
8585;BME280;7180;52.742;11.420;2023-02-23T05:38:21;100616.59;;;4.52;100.00
8585;BME280;7180;52.742;11.420;2023-02-23T05:40:47;100614.81;;;4.54;100.00
8585;BME280;7180;52.742;11.420;2023-02-23T05:43:12;100610.59;;;4.50;100.00
8585;BME280;7180;52.742;11.420;2023-02-23T05:45:41;100609.91;;;4.45;100.00
8585;BME280;7180;52.742;11.420;2023-02-23T05:48:08;100605.56;;;4.46;100.00
8585;BME280;7180;52.742;11.420;2023-02-23T05:50:34;100606.50;;;4.43;100.00
8585;BME280;7180;52.742;11.420;2023-02-23T05:53:00;100606.75;;;4.36;100.00
8585;BME280;7180;52.742;11.420;2023-02-23T05:55:25;100601.88;;;4.25;100.00
8585;BME280;7180;52.742;11.420;2023-02-23T05:57:51;100601.88;;;4.25;100.00
8585;BME280;7180;52.742;11.420;2023-02-23T06:00:16;100602.00;;;4.22;100.00
8585;BME280;7180;52.742;11.420;2023-02-23T06:02:42;100605.78;;;4.12;100.00
8585;BME280;7180;52.742;11.420;2023-02-23T06:05:09;100608.25;;;4.16;100.00
8585;BME280;7180;52.742;11.420;2023-02-23T06:07:34;100607.50;;;4.13;100.00
8585;BME280;7180;52.742;11.420;2023-02-23T06:10:00;100605.59;;;4.18;100.00
8585;BME280;7180;52.742;11.420;2023-02-23T06:12:25;100605.72;;;4.13;100.00
8585;BME280;7180;52.742;11.420;2023-02-23T06:14:50;100617.69;;;4.19;100.00
8585;BME280;7180;52.742;11.420;2023-02-23T06:17:16;100615.13;;;4.17;100.00
8585;BME280;7180;52.742;11.420;2023-02-23T06:19:41;100621.97;;;4.21;100.00
8585;BME280;7180;52.742;11.420;2023-02-23T06:22:07;100621.19;;;4.18;100.00
8585;BME280;7180;52.742;11.420;2023-02-23T06:24:32;100621.09;;;4.21;100.00
8585;BME280;7180;52.742;11.420;2023-02-23T06:26:58;100620.06;;;4.27;100.00
8585;BME280;7180;52.742;11.420;2023-02-23T06:29:23;100624.22;;;4.32;100.00
8585;BME280;7180;52.742;11.420;2023-02-23T06:31:49;100629.22;;;4.38;100.00
8585;BME280;7180;52.742;11.420;2023-02-23T06:34:14;100635.22;;;4.40;100.00
8585;BME280;7180;52.742;11.420;2023-02-23T06:36:39;100632.63;;;4.40;100.00
8585;BME280;7180;52.742;11.420;2023-02-23T06:39:04;100625.63;;;4.42;100.00
8585;BME280;7180;52.742;11.420;2023-02-23T06:41:31;100637.47;;;4.51;100.00
8585;BME280;7180;52.742;11.420;2023-02-23T06:43:57;100629.50;;;4.55;100.00
8585;BME280;7180;52.742;11.420;2023-02-23T06:46:22;100646.50;;;4.67;100.00
8585;BME280;7180;52.742;11.420;2023-02-23T06:48:48;100648.03;;;4.72;100.00
8585;BME280;7180;52.742;11.420;2023-02-23T06:51:13;100645.97;;;4.82;100.00
8585;BME280;7180;52.742;11.420;2023-02-23T06:53:39;100643.00;;;4.92;100.00
8585;BME280;7180;52.742;11.420;2023-02-23T06:56:04;100644.38;;;5.02;100.00
8585;BME280;7180;52.742;11.420;2023-02-23T06:58:30;100648.25;;;5.15;100.00
8585;BME280;7180;52.742;11.420;2023-02-23T07:00:56;100652.22;;;5.25;100.00
8585;BME280;7180;52.742;11.420;2023-02-23T07:03:23;100650.09;;;5.37;100.00
8585;BME280;7180;52.742;11.420;2023-02-23T07:05:48;100645.47;;;5.45;100.00
8585;BME280;7180;52.742;11.420;2023-02-23T07:08:15;100637.50;;;5.48;100.00
8585;BME280;7180;52.742;11.420;2023-02-23T07:10:42;100635.56;;;5.54;100.00
8585;BME280;7180;52.742;11.420;2023-02-23T07:13:07;100624.81;;;5.62;100.00
8585;BME280;7180;52.742;11.420;2023-02-23T07:15:34;100633.06;;;5.73;100.00
8585;BME280;7180;52.742;11.420;2023-02-23T07:18:00;100624.22;;;5.77;100.00
8585;BME280;7180;52.742;11.420;2023-02-23T07:20:25;100620.38;;;5.87;100.00
8585;BME280;7180;52.742;11.420;2023-02-23T07:22:50;100604.50;;;5.93;100.00
8585;BME280;7180;52.742;11.420;2023-02-23T07:25:16;100602.19;;;6.07;100.00
8585;BME280;7180;52.742;11.420;2023-02-23T07:27:41;100608.38;;;6.26;100.00
8585;BME280;7180;52.742;11.420;2023-02-23T07:30:08;100597.56;;;6.35;100.00
8585;BME280;7180;52.742;11.420;2023-02-23T07:32:33;100586.84;;;6.41;100.00
8585;BME280;7180;52.742;11.420;2023-02-23T07:34:59;100577.47;;;6.57;100.00
8585;BME280;7180;52.742;11.420;2023-02-23T07:37:24;100572.69;;;6.67;100.00
8585;BME280;7180;52.742;11.420;2023-02-23T07:39:49;100560.09;;;6.76;100.00
8585;BME280;7180;52.742;11.420;2023-02-23T07:42:14;100553.84;;;6.80;100.00
8585;BME280;7180;52.742;11.420;2023-02-23T07:44:40;100552.56;;;6.89;100.00
8585;BME280;7180;52.742;11.420;2023-02-23T07:47:05;100534.19;;;6.90;100.00
8585;BME280;7180;52.742;11.420;2023-02-23T07:49:31;100517.88;;;6.85;100.00
8585;BME280;7180;52.742;11.420;2023-02-23T07:51:57;100514.88;;;6.94;100.00
8585;BME280;7180;52.742;11.420;2023-02-23T07:54:22;100492.66;;;6.84;100.00
8585;BME280;7180;52.742;11.420;2023-02-23T07:56:47;100495.63;;;6.95;100.00
8585;BME280;7180;52.742;11.420;2023-02-23T07:59:13;100482.19;;;6.84;100.00
8585;BME280;7180;52.742;11.420;2023-02-23T08:01:38;100481.06;;;6.90;100.00
8585;BME280;7180;52.742;11.420;2023-02-23T08:04:04;100498.25;;;6.95;100.00
8585;BME280;7180;52.742;11.420;2023-02-23T08:06:29;100497.34;;;6.96;100.00
8585;BME280;7180;52.742;11.420;2023-02-23T08:08:57;100516.03;;;7.07;100.00
8585;BME280;7180;52.742;11.420;2023-02-23T08:11:23;100530.50;;;7.14;100.00
8585;BME280;7180;52.742;11.420;2023-02-23T08:13:48;100525.34;;;7.13;100.00
8585;BME280;7180;52.742;11.420;2023-02-23T08:16:14;100536.53;;;7.16;100.00
8585;BME280;7180;52.742;11.420;2023-02-23T08:18:40;100537.41;;;7.15;100.00
8585;BME280;7180;52.742;11.420;2023-02-23T08:21:05;100533.19;;;7.13;100.00
8585;BME280;7180;52.742;11.420;2023-02-23T08:23:32;100539.41;;;7.10;100.00
8585;BME280;7180;52.742;11.420;2023-02-23T08:25:58;100546.81;;;7.19;100.00
8585;BME280;7180;52.742;11.420;2023-02-23T08:28:24;100553.31;;;7.11;100.00
8585;BME280;7180;52.742;11.420;2023-02-23T08:30:50;100560.94;;;7.15;100.00
8585;BME280;7180;52.742;11.420;2023-02-23T08:33:15;100573.69;;;7.23;100.00
8585;BME280;7180;52.742;11.420;2023-02-23T08:35:41;100574.13;;;7.32;100.00
8585;BME280;7180;52.742;11.420;2023-02-23T08:38:06;100585.16;;;7.39;100.00
8585;BME280;7180;52.742;11.420;2023-02-23T08:40:32;100596.94;;;7.48;100.00
8585;BME280;7180;52.742;11.420;2023-02-23T08:42:57;100591.88;;;7.45;100.00
8585;BME280;7180;52.742;11.420;2023-02-23T08:45:22;100570.44;;;7.36;100.00
8585;BME280;7180;52.742;11.420;2023-02-23T08:47:48;100563.66;;;7.32;100.00
8585;BME280;7180;52.742;11.420;2023-02-23T08:50:13;100565.72;;;7.45;100.00
8585;BME280;7180;52.742;11.420;2023-02-23T08:52:39;100571.72;;;7.47;100.00
8585;BME280;7180;52.742;11.420;2023-02-23T08:55:05;100581.91;;;7.53;100.00
8585;BME280;7180;52.742;11.420;2023-02-23T08:57:34;100580.28;;;7.50;100.00
8585;BME280;7180;52.742;11.420;2023-02-23T09:00:00;100579.22;;;7.54;100.00
8585;BME280;7180;52.742;11.420;2023-02-23T09:02:26;100591.97;;;7.62;100.00
8585;BME280;7180;52.742;11.420;2023-02-23T09:04:52;100597.19;;;7.62;100.00
8585;BME280;7180;52.742;11.420;2023-02-23T09:07:20;100591.81;;;7.65;100.00
8585;BME280;7180;52.742;11.420;2023-02-23T09:09:53;100593.38;;;7.69;100.00
8585;BME280;7180;52.742;11.420;2023-02-23T09:12:18;100594.16;;;7.71;100.00
8585;BME280;7180;52.742;11.420;2023-02-23T09:14:43;100585.09;;;7.59;100.00
8585;BME280;7180;52.742;11.420;2023-02-23T09:17:08;100597.19;;;7.62;100.00
8585;BME280;7180;52.742;11.420;2023-02-23T09:19:34;100599.59;;;7.66;100.00
8585;BME280;7180;52.742;11.420;2023-02-23T09:21:59;100615.91;;;7.90;100.00
8585;BME280;7180;52.742;11.420;2023-02-23T09:24:24;100615.75;;;7.93;100.00
8585;BME280;7180;52.742;11.420;2023-02-23T09:26:50;100610.59;;;7.91;100.00
8585;BME280;7180;52.742;11.420;2023-02-23T09:29:17;100629.13;;;8.24;100.00
8585;BME280;7180;52.742;11.420;2023-02-23T09:31:42;100584.59;;;8.05;100.00
8585;BME280;7180;52.742;11.420;2023-02-23T09:34:08;100573.75;;;7.96;100.00
8585;BME280;7180;52.742;11.420;2023-02-23T09:36:34;100570.59;;;8.06;100.00
8585;BME280;7180;52.742;11.420;2023-02-23T09:38:59;100572.38;;;8.06;100.00
8585;BME280;7180;52.742;11.420;2023-02-23T09:49:19;100586.59;;;8.00;100.00
8585;BME280;7180;52.742;11.420;2023-02-23T09:51:50;100597.56;;;8.08;100.00
8585;BME280;7180;52.742;11.420;2023-02-23T09:54:28;100605.97;;;8.15;100.00
8585;BME280;7180;52.742;11.420;2023-02-23T09:56:54;100606.47;;;8.23;100.00
8585;BME280;7180;52.742;11.420;2023-02-23T09:59:23;100614.13;;;8.27;100.00
8585;BME280;7180;52.742;11.420;2023-02-23T10:04:44;100616.91;;;8.42;100.00
8585;BME280;7180;52.742;11.420;2023-02-23T10:07:42;100629.00;;;8.61;100.00
8585;BME280;7180;52.742;11.420;2023-02-23T10:13:05;100623.31;;;8.87;100.00
8585;BME280;7180;52.742;11.420;2023-02-23T10:15:49;100582.44;;;8.83;100.00
8585;BME280;7180;52.742;11.420;2023-02-23T10:23:40;100557.31;;;8.96;100.00
8585;BME280;7180;52.742;11.420;2023-02-23T10:26:14;100554.97;;;9.07;100.00
8585;BME280;7180;52.742;11.420;2023-02-23T10:28:40;100526.78;;;8.95;100.00
8585;BME280;7180;52.742;11.420;2023-02-23T10:31:39;100536.78;;;9.04;100.00
8585;BME280;7180;52.742;11.420;2023-02-23T10:34:13;100534.41;;;9.15;100.00
8585;BME280;7180;52.742;11.420;2023-02-23T10:36:45;100523.69;;;9.20;100.00
8585;BME280;7180;52.742;11.420;2023-02-23T10:39:14;100520.97;;;9.21;100.00
8585;BME280;7180;52.742;11.420;2023-02-23T10:41:40;100516.91;;;9.31;100.00
8585;BME280;7180;52.742;11.420;2023-02-23T10:44:17;100501.03;;;9.34;100.00
8585;BME280;7180;52.742;11.420;2023-02-23T10:46:45;100489.00;;;9.30;100.00
8585;BME280;7180;52.742;11.420;2023-02-23T10:49:17;100490.75;;;9.30;100.00
8585;BME280;7180;52.742;11.420;2023-02-23T10:51:47;100505.91;;;9.40;100.00
8585;BME280;7180;52.742;11.420;2023-02-23T10:56:59;100501.59;;;9.55;100.00
8585;BME280;7180;52.742;11.420;2023-02-23T10:59:25;100484.41;;;9.50;100.00
8585;BME280;7180;52.742;11.420;2023-02-23T11:01:52;100489.66;;;9.50;100.00
8585;BME280;7180;52.742;11.420;2023-02-23T11:04:27;100490.09;;;9.58;100.00
8585;BME280;7180;52.742;11.420;2023-02-23T11:07:16;100501.03;;;9.66;100.00
8585;BME280;7180;52.742;11.420;2023-02-23T11:09:42;100489.09;;;9.60;100.00
8585;BME280;7180;52.742;11.420;2023-02-23T11:12:37;100476.78;;;9.61;100.00
8585;BME280;7180;52.742;11.420;2023-02-23T11:17:56;100432.59;;;9.69;100.00
8585;BME280;7180;52.742;11.420;2023-02-23T11:20:32;100442.09;;;9.71;100.00
8585;BME280;7180;52.742;11.420;2023-02-23T11:23:07;100439.34;;;9.73;100.00
8585;BME280;7180;52.742;11.420;2023-02-23T11:25:33;100428.00;;;9.72;100.00
8585;BME280;7180;52.742;11.420;2023-02-23T11:27:59;100445.84;;;9.81;100.00
8585;BME280;7180;52.742;11.420;2023-02-23T11:30:34;100432.63;;;9.83;100.00
8585;BME280;7180;52.742;11.420;2023-02-23T11:33:03;100425.41;;;10.02;100.00
8585;BME280;7180;52.742;11.420;2023-02-23T11:35:36;100395.66;;;10.01;100.00
8585;BME280;7180;52.742;11.420;2023-02-23T11:40:58;100371.69;;;9.92;100.00
8585;BME280;7180;52.742;11.420;2023-02-23T11:43:23;100366.63;;;9.89;100.00
8585;BME280;7180;52.742;11.420;2023-02-23T11:45:51;100375.63;;;9.85;100.00
8585;BME280;7180;52.742;11.420;2023-02-23T11:48:38;100399.28;;;9.99;100.00
8585;BME280;7180;52.742;11.420;2023-02-23T11:51:07;100388.94;;;10.11;100.00
8585;BME280;7180;52.742;11.420;2023-02-23T11:53:38;100351.25;;;9.97;100.00
8585;BME280;7180;52.742;11.420;2023-02-23T11:56:05;100374.53;;;10.03;100.00
8585;BME280;7180;52.742;11.420;2023-02-23T11:58:48;100382.00;;;10.10;100.00
8585;BME280;7180;52.742;11.420;2023-02-23T12:01:17;100374.50;;;10.18;100.00
8585;BME280;7180;52.742;11.420;2023-02-23T12:03:49;100351.50;;;10.22;100.00
8585;BME280;7180;52.742;11.420;2023-02-23T12:06:44;100325.97;;;10.24;100.00
8585;BME280;7180;52.742;11.420;2023-02-23T12:09:25;100298.59;;;10.14;100.00
8585;BME280;7180;52.742;11.420;2023-02-23T12:12:05;100295.53;;;10.06;100.00
8585;BME280;7180;52.742;11.420;2023-02-23T12:14:40;100297.25;;;10.07;100.00
8585;BME280;7180;52.742;11.420;2023-02-23T12:17:18;100303.81;;;10.00;100.00
8585;BME280;7180;52.742;11.420;2023-02-23T12:19:55;100290.75;;;9.84;100.00
8585;BME280;7180;52.742;11.420;2023-02-23T12:22:31;100289.06;;;9.97;100.00
8585;BME280;7180;52.742;11.420;2023-02-23T12:25:01;100266.44;;;9.67;100.00
8585;BME280;7180;52.742;11.420;2023-02-23T12:27:41;100302.88;;;9.57;100.00
8585;BME280;7180;52.742;11.420;2023-02-23T12:30:22;100332.78;;;9.55;100.00
8585;BME280;7180;52.742;11.420;2023-02-23T12:38:19;100361.72;;;9.69;100.00
8585;BME280;7180;52.742;11.420;2023-02-23T12:40:57;100357.47;;;9.66;100.00
8585;BME280;7180;52.742;11.420;2023-02-23T12:46:25;100345.38;;;9.64;100.00
8585;BME280;7180;52.742;11.420;2023-02-23T12:51:37;100346.31;;;9.63;100.00
8585;BME280;7180;52.742;11.420;2023-02-23T12:54:04;100367.88;;;9.68;100.00
8585;BME280;7180;52.742;11.420;2023-02-23T13:02:17;100396.69;;;9.69;100.00
8585;BME280;7180;52.742;11.420;2023-02-23T13:07:42;100395.41;;;9.61;100.00
8585;BME280;7180;52.742;11.420;2023-02-23T13:10:33;100411.00;;;9.64;100.00
8585;BME280;7180;52.742;11.420;2023-02-23T13:13:07;100405.16;;;9.59;100.00
8585;BME280;7180;52.742;11.420;2023-02-23T13:18:17;100410.94;;;9.50;100.00
8585;BME280;7180;52.742;11.420;2023-02-23T13:20:53;100412.97;;;9.44;100.00
8585;BME280;7180;52.742;11.420;2023-02-23T13:26:27;100407.97;;;9.56;100.00
8585;BME280;7180;52.742;11.420;2023-02-23T13:29:02;100383.00;;;9.49;100.00
8585;BME280;7180;52.742;11.420;2023-02-23T13:31:35;100358.81;;;9.43;100.00
8585;BME280;7180;52.742;11.420;2023-02-23T13:34:02;100378.75;;;9.46;100.00
8585;BME280;7180;52.742;11.420;2023-02-23T13:36:31;100374.91;;;9.37;100.00
8585;BME280;7180;52.742;11.420;2023-02-23T13:39:20;100385.00;;;9.29;100.00
8585;BME280;7180;52.742;11.420;2023-02-23T13:42:17;100411.28;;;9.43;100.00
8585;BME280;7180;52.742;11.420;2023-02-23T13:45:10;100396.97;;;9.33;100.00
8585;BME280;7180;52.742;11.420;2023-02-23T13:47:48;100420.94;;;9.43;100.00
8585;BME280;7180;52.742;11.420;2023-02-23T13:50:33;100403.94;;;9.34;100.00
8585;BME280;7180;52.742;11.420;2023-02-23T13:53:04;100422.88;;;9.39;100.00
8585;BME280;7180;52.742;11.420;2023-02-23T13:58:11;100412.38;;;9.39;100.00
8585;BME280;7180;52.742;11.420;2023-02-23T14:00:39;100421.94;;;9.40;100.00
8585;BME280;7180;52.742;11.420;2023-02-23T14:03:06;100429.13;;;9.37;100.00
8585;BME280;7180;52.742;11.420;2023-02-23T14:05:41;100429.59;;;9.29;100.00
8585;BME280;7180;52.742;11.420;2023-02-23T14:08:21;100435.06;;;9.25;100.00
8585;BME280;7180;52.742;11.420;2023-02-23T14:10:48;100449.81;;;9.27;100.00
8585;BME280;7180;52.742;11.420;2023-02-23T14:15:45;100450.59;;;9.29;100.00
8585;BME280;7180;52.742;11.420;2023-02-23T14:39:00;100485.00;;;9.23;100.00
8585;BME280;7180;52.742;11.420;2023-02-23T14:44:24;100501.28;;;9.46;100.00
8585;BME280;7180;52.742;11.420;2023-02-23T14:47:11;100482.16;;;9.43;100.00
8585;BME280;7180;52.742;11.420;2023-02-23T14:49:42;100459.03;;;9.34;100.00
8585;BME280;7180;52.742;11.420;2023-02-23T14:54:48;100463.69;;;9.29;100.00
8585;BME280;7180;52.742;11.420;2023-02-23T14:57:23;100468.00;;;9.30;100.00
8585;BME280;7180;52.742;11.420;2023-02-23T14:59:56;100480.44;;;9.27;100.00
8585;BME280;7180;52.742;11.420;2023-02-23T15:02:23;100496.28;;;9.25;100.00
8585;BME280;7180;52.742;11.420;2023-02-23T15:04:49;100494.75;;;9.21;100.00
8585;BME280;7180;52.742;11.420;2023-02-23T15:07:19;100513.28;;;9.18;100.00
8585;BME280;7180;52.742;11.420;2023-02-23T15:09:51;100509.44;;;9.08;100.00
8585;BME280;7180;52.742;11.420;2023-02-23T15:12:19;100528.56;;;9.10;100.00
8585;BME280;7180;52.742;11.420;2023-02-23T15:14:47;100527.88;;;9.07;100.00